createdAt,value
2019-05-07T00:00:22.125Z,5.93
2019-05-07T00:02:48.866Z,5.91
2019-05-07T00:05:15.512Z,5.91
2019-05-07T00:07:42.562Z,5.89
2019-05-07T00:10:09.281Z,5.87
2019-05-07T00:12:35.992Z,5.84
2019-05-07T00:15:04.604Z,5.85
2019-05-07T00:17:32.293Z,5.82
2019-05-07T00:19:59.083Z,5.81
2019-05-07T00:22:25.729Z,5.80
2019-05-07T00:24:52.348Z,5.80
2019-05-07T00:27:19.046Z,5.79
2019-05-07T00:29:45.712Z,5.78
2019-05-07T00:32:12.327Z,5.73
2019-05-07T00:34:44.124Z,5.70
2019-05-07T00:37:25.991Z,5.65
2019-05-07T00:40:25.319Z,5.58
2019-05-07T00:43:23.365Z,5.50
2019-05-07T00:46:02.331Z,5.38
2019-05-07T00:48:29.078Z,5.27
2019-05-07T00:51:15.210Z,5.19
2019-05-07T00:53:42.369Z,5.11
2019-05-07T00:56:09.148Z,5.06
2019-05-07T00:58:35.749Z,5.02
2019-05-07T01:01:02.645Z,4.95
2019-05-07T01:03:29.304Z,4.92
2019-05-07T01:05:55.940Z,4.86
2019-05-07T01:08:22.760Z,4.81
2019-05-07T01:10:49.491Z,4.78
2019-05-07T01:13:16.134Z,4.73
2019-05-07T01:15:43.129Z,4.67
2019-05-07T01:18:12.195Z,4.62
2019-05-07T01:20:38.435Z,4.58
2019-05-07T01:23:05.050Z,4.54
2019-05-07T01:25:32.859Z,4.53
2019-05-07T01:27:59.683Z,4.52
2019-05-07T01:30:26.283Z,4.49
2019-05-07T01:33:03.182Z,4.47
2019-05-07T01:35:47.953Z,4.44
2019-05-07T01:38:16.464Z,4.44
2019-05-07T01:40:43.113Z,4.41
2019-05-07T01:43:11.937Z,4.35
2019-05-07T01:45:48.798Z,4.28
2019-05-07T01:48:12.151Z,4.21
2019-05-07T01:50:38.770Z,4.13
2019-05-07T01:53:05.485Z,4.05
2019-05-07T01:55:32.097Z,3.96
2019-05-07T01:57:58.723Z,3.90
2019-05-07T02:00:25.373Z,3.86
2019-05-07T02:02:57.743Z,3.81
2019-05-07T02:05:33.179Z,3.77
2019-05-07T02:08:02.939Z,3.74
2019-05-07T02:11:04.189Z,3.72
2019-05-07T02:13:30.815Z,3.70
2019-05-07T02:16:00.982Z,3.67
2019-05-07T02:18:25.930Z,3.64
2019-05-07T02:20:52.512Z,3.58
2019-05-07T02:23:19.139Z,3.54
2019-05-07T02:25:45.748Z,3.50
2019-05-07T02:28:12.833Z,3.44
2019-05-07T02:30:39.624Z,3.40
2019-05-07T02:33:06.230Z,3.38
2019-05-07T02:35:33.465Z,3.35
2019-05-07T02:38:13.745Z,3.32
2019-05-07T02:40:53.473Z,3.26
2019-05-07T02:43:22.620Z,3.22
2019-05-07T02:46:20.660Z,3.20
2019-05-07T02:48:36.713Z,3.23
2019-05-07T02:51:16.415Z,3.25
2019-05-07T02:53:53.670Z,3.25
2019-05-07T02:56:20.051Z,3.25
2019-05-07T02:58:46.658Z,3.21
2019-05-07T03:01:13.997Z,3.19
2019-05-07T03:03:40.748Z,3.12
2019-05-07T03:06:07.407Z,3.07
2019-05-07T03:08:34.031Z,3.01
2019-05-07T03:11:03.399Z,2.97
2019-05-07T03:13:29.279Z,2.92
2019-05-07T03:15:55.908Z,2.88
2019-05-07T03:18:23.386Z,2.84
2019-05-07T03:20:54.493Z,2.85
2019-05-07T03:23:24.834Z,2.83
2019-05-07T03:26:13.983Z,2.78
2019-05-07T03:28:58.034Z,2.77
2019-05-07T03:31:46.807Z,2.75
2019-05-07T03:34:26.821Z,2.71
2019-05-07T03:36:56.352Z,2.71
2019-05-07T03:39:24.171Z,2.70
2019-05-07T03:41:53.154Z,2.69
2019-05-07T03:44:44.524Z,2.68
2019-05-07T03:47:39.199Z,2.68
2019-05-07T03:50:06.436Z,2.67
2019-05-07T03:52:33.687Z,2.66
2019-05-07T03:55:03.357Z,2.64
2019-05-07T03:57:29.038Z,2.65
2019-05-07T03:59:55.727Z,2.68
2019-05-07T04:02:23.891Z,2.70
2019-05-07T04:04:52.864Z,2.74
2019-05-07T04:07:19.421Z,2.76
2019-05-07T04:09:46.090Z,2.78
2019-05-07T04:12:13.352Z,2.81
2019-05-07T04:14:42.906Z,2.85
2019-05-07T04:17:22.115Z,2.87
2019-05-07T04:19:37.204Z,2.90
2019-05-07T04:22:04.477Z,2.93
2019-05-07T04:24:48.364Z,2.96
2019-05-07T04:27:24.052Z,3.01
2019-05-07T04:29:53.250Z,3.04
2019-05-07T04:32:23.201Z,3.08
2019-05-07T04:35:08.941Z,3.12
2019-05-07T04:37:35.587Z,3.16
2019-05-07T04:40:03.121Z,3.17
2019-05-07T04:42:33.100Z,3.20
2019-05-07T04:44:58.790Z,3.25
2019-05-07T04:47:38.548Z,3.30
2019-05-07T04:49:54.035Z,3.37
2019-05-07T04:52:33.360Z,3.45
2019-05-07T04:54:58.463Z,3.54
2019-05-07T04:57:25.221Z,3.62
2019-05-07T04:59:53.357Z,3.68
2019-05-07T05:02:23.126Z,3.76
2019-05-07T05:04:49.911Z,3.82
2019-05-07T05:07:16.620Z,3.90
2019-05-07T05:09:43.299Z,3.94
2019-05-07T05:12:09.929Z,3.99
2019-05-07T05:14:36.678Z,4.03
2019-05-07T05:17:03.433Z,4.12
2019-05-07T05:19:32.186Z,4.16
2019-05-07T05:22:08.511Z,4.20
2019-05-07T05:24:42.398Z,4.24
2019-05-07T05:27:09.165Z,4.35
2019-05-07T05:29:36.579Z,4.46
2019-05-07T05:32:03.292Z,4.56
2019-05-07T05:34:29.914Z,4.70
2019-05-07T05:36:56.564Z,4.81
2019-05-07T05:39:23.268Z,5.15
2019-05-07T05:41:53.925Z,5.68
2019-05-07T05:44:32.035Z,6.50
2019-05-07T05:46:58.998Z,6.76
2019-05-07T05:49:25.692Z,6.91
2019-05-07T05:52:18.077Z,7.16
2019-05-07T05:55:07.026Z,7.13
2019-05-07T05:57:51.895Z,7.36
2019-05-07T06:00:36.540Z,7.46
2019-05-07T06:03:25.690Z,7.37
2019-05-07T06:06:04.774Z,7.47
2019-05-07T06:08:45.816Z,7.64
2019-05-07T06:11:18.430Z,7.74
2019-05-07T06:14:02.129Z,7.75
2019-05-07T06:16:33.225Z,7.73
2019-05-07T06:19:22.560Z,7.70
2019-05-07T06:22:17.239Z,7.63
2019-05-07T06:24:56.596Z,7.57
2019-05-07T06:27:23.358Z,7.71
2019-05-07T06:29:52.282Z,7.83
2019-05-07T06:32:19.360Z,8.02
2019-05-07T06:34:46.084Z,7.96
2019-05-07T06:37:12.701Z,7.96
2019-05-07T06:39:48.181Z,7.94
2019-05-07T06:42:34.772Z,8.03
2019-05-07T06:45:06.791Z,8.10
2019-05-07T06:47:33.548Z,8.03
2019-05-07T06:50:00.239Z,8.07
2019-05-07T06:52:26.855Z,8.05
2019-05-07T06:54:53.574Z,8.06
2019-05-07T06:57:22.193Z,8.12
2019-05-07T06:59:53.127Z,8.09
2019-05-07T07:02:41.806Z,8.02
2019-05-07T07:13:49.047Z,8.28
2019-05-07T07:16:15.669Z,8.40
2019-05-07T07:18:52.114Z,8.45
2019-05-07T07:21:16.823Z,8.47
2019-05-07T07:23:43.447Z,8.50
2019-05-07T07:26:12.471Z,8.61
2019-05-07T07:28:45.037Z,8.67
2019-05-07T07:31:31.846Z,8.84
2019-05-07T07:39:24.719Z,9.58
2019-05-07T07:42:02.976Z,9.86
2019-05-07T07:44:37.567Z,9.98
2019-05-07T07:47:04.239Z,10.03
2019-05-07T07:49:33.002Z,10.13
2019-05-07T07:52:05.425Z,10.10
2019-05-07T07:54:32.272Z,9.84
2019-05-07T08:02:55.187Z,9.56
2019-05-07T08:05:22.011Z,9.56
2019-05-07T08:08:02.133Z,9.55
2019-05-07T08:10:34.893Z,9.49
2019-05-07T08:13:02.083Z,9.43
2019-05-07T08:15:39.707Z,9.39
2019-05-07T08:18:06.364Z,9.37
2019-05-07T08:20:32.994Z,9.47
2019-05-07T08:22:59.600Z,9.62
2019-05-07T08:25:45.730Z,9.89
2019-05-07T08:28:12.438Z,10.27
2019-05-07T08:33:37.631Z,10.78
2019-05-07T08:36:23.886Z,10.97
2019-05-07T08:39:10.026Z,11.18
2019-05-07T08:41:36.674Z,11.53
2019-05-07T08:44:22.866Z,11.97
2019-05-07T08:47:08.979Z,12.26
2019-05-07T08:52:29.980Z,12.68
2019-05-07T08:54:56.700Z,12.98
2019-05-07T08:57:23.401Z,12.78
2019-05-07T08:59:58.498Z,12.31
2019-05-07T09:02:28.374Z,12.13
2019-05-07T09:04:54.989Z,12.01
2019-05-07T09:07:22.044Z,11.74
2019-05-07T09:09:56.571Z,11.65
2019-05-07T09:12:23.307Z,11.73
2019-05-07T09:14:49.944Z,11.74
2019-05-07T09:17:16.555Z,11.74
2019-05-07T09:19:50.681Z,11.68
2019-05-07T09:22:18.112Z,11.77
2019-05-07T09:24:44.895Z,11.81
2019-05-07T09:27:32.775Z,11.95
2019-05-07T09:30:28.257Z,12.00
2019-05-07T09:35:52.888Z,12.13
2019-05-07T09:38:25.716Z,12.27
2019-05-07T09:40:52.529Z,12.37
2019-05-07T09:43:32.276Z,12.57
2019-05-07T09:46:05.476Z,12.70
2019-05-07T09:48:33.856Z,12.72
2019-05-07T09:51:12.243Z,12.83
2019-05-07T09:53:45.632Z,12.97
2019-05-07T09:56:12.427Z,13.22
2019-05-07T09:58:39.349Z,13.46
2019-05-07T10:01:14.247Z,13.66
2019-05-07T10:03:42.840Z,13.57
2019-05-07T10:06:15.370Z,13.43
2019-05-07T10:08:42.112Z,13.12
2019-05-07T10:14:06.835Z,12.96
2019-05-07T10:16:53.030Z,12.97
2019-05-07T10:19:22.116Z,13.08
2019-05-07T10:21:54.901Z,13.32
2019-05-07T10:24:22.213Z,13.42
2019-05-07T10:26:56.295Z,13.83
2019-05-07T10:29:22.941Z,14.18
2019-05-07T10:31:49.609Z,14.10
2019-05-07T10:34:16.262Z,14.63
2019-05-07T10:36:42.879Z,15.49
2019-05-07T10:39:09.602Z,15.73
2019-05-07T10:41:36.251Z,15.54
2019-05-07T10:44:02.876Z,15.23
2019-05-07T10:46:48.965Z,15.01
2019-05-07T10:49:35.082Z,14.80
2019-05-07T10:52:02.207Z,14.54
2019-05-07T10:54:40.630Z,14.42
2019-05-07T10:57:07.267Z,14.40
2019-05-07T10:59:33.993Z,14.37
2019-05-07T11:02:21.851Z,14.67
2019-05-07T11:04:54.541Z,15.36
2019-05-07T11:07:22.252Z,15.82
2019-05-07T11:09:59.457Z,16.21
2019-05-07T11:12:26.149Z,16.53
2019-05-07T11:14:52.753Z,16.65
2019-05-07T11:20:07.607Z,16.43
2019-05-07T11:22:34.229Z,16.10
2019-05-07T11:25:02.872Z,15.78
2019-05-07T11:27:35.819Z,15.61
2019-05-07T11:30:02.808Z,15.51
2019-05-07T11:32:37.463Z,15.55
2019-05-07T11:35:04.125Z,15.46
2019-05-07T11:37:30.738Z,15.32
2019-05-07T11:39:57.365Z,15.32
2019-05-07T11:42:45.114Z,15.38
2019-05-07T11:48:01.917Z,16.30
2019-05-07T11:51:03.263Z,17.24
2019-05-07T11:53:30.114Z,17.88
2019-05-07T11:56:08.913Z,18.14
2019-05-07T11:58:35.562Z,18.45
2019-05-07T12:03:44.326Z,18.60
2019-05-07T12:06:12.425Z,19.08
2019-05-07T12:08:51.783Z,18.92
2019-05-07T12:11:21.878Z,18.54
2019-05-07T12:13:59.192Z,17.58
2019-05-07T12:16:25.934Z,16.82
2019-05-07T12:18:55.493Z,16.42
2019-05-07T12:21:27.250Z,16.01
2019-05-07T12:23:54.000Z,15.77
2019-05-07T12:26:22.248Z,15.45
2019-05-07T12:28:59.221Z,15.21
2019-05-07T12:31:45.409Z,15.22
2019-05-07T12:36:54.979Z,15.40
2019-05-07T12:39:22.015Z,15.50
2019-05-07T12:41:56.740Z,15.15
2019-05-07T12:44:23.357Z,15.45
2019-05-07T12:46:50.003Z,15.61
2019-05-07T12:49:16.633Z,16.55
2019-05-07T12:52:02.753Z,16.76
2019-05-07T12:54:48.967Z,17.41
2019-05-07T12:57:15.744Z,18.39
2019-05-07T12:59:42.667Z,19.51
2019-05-07T13:05:03.716Z,20.94
2019-05-07T13:07:49.845Z,21.45
2019-05-07T13:10:36.011Z,21.74
2019-05-07T13:13:02.691Z,22.10
2019-05-07T13:15:29.396Z,22.41
2019-05-07T13:17:56.111Z,22.64
2019-05-07T13:20:22.879Z,22.70
2019-05-07T13:22:49.530Z,22.55
2019-05-07T13:28:03.222Z,20.72
2019-05-07T13:30:29.986Z,20.35
2019-05-07T13:32:56.771Z,20.46
2019-05-07T13:35:23.815Z,20.50
2019-05-07T13:38:11.807Z,20.40
2019-05-07T13:41:05.847Z,20.51
2019-05-07T13:49:09.975Z,20.78
2019-05-07T13:51:36.920Z,20.69
2019-05-07T13:54:03.874Z,21.32
2019-05-07T13:56:32.489Z,21.72
2019-05-07T13:59:05.599Z,22.45
2019-05-07T14:01:51.724Z,23.23
2019-05-07T14:04:18.452Z,23.56
2019-05-07T14:06:45.115Z,22.92
2019-05-07T14:12:12.308Z,22.87
2019-05-07T14:14:46.653Z,23.14
2019-05-07T14:17:13.392Z,22.70
2019-05-07T14:19:42.149Z,22.71
2019-05-07T14:27:36.010Z,22.97
2019-05-07T14:30:04.086Z,22.39
2019-05-07T14:41:02.700Z,19.48
2019-05-07T14:46:50.942Z,18.73
2019-05-07T14:49:16.380Z,18.55
2019-05-07T14:51:44.984Z,18.44
2019-05-07T14:54:27.010Z,18.27
2019-05-07T14:57:02.262Z,18.25
2019-05-07T14:59:23.731Z,18.05
2019-05-07T15:01:52.216Z,18.08
2019-05-07T15:04:29.302Z,18.13
2019-05-07T15:09:55.551Z,18.21
2019-05-07T15:12:23.365Z,18.50
2019-05-07T15:14:57.543Z,18.51
2019-05-07T15:20:23.715Z,18.28
2019-05-07T15:25:33.996Z,18.06
2019-05-07T15:28:01.778Z,17.94
2019-05-07T15:30:58.388Z,17.87
2019-05-07T15:33:25.036Z,17.82
2019-05-07T15:35:52.192Z,18.06
2019-05-07T15:38:26.348Z,18.30
2019-05-07T15:40:53.071Z,18.23
2019-05-07T15:46:22.594Z,18.42
2019-05-07T15:48:55.529Z,18.57
2019-05-07T15:51:22.573Z,18.61
2019-05-07T15:54:00.650Z,19.51
2019-05-07T15:56:27.479Z,20.61
2019-05-07T15:58:57.343Z,21.49
2019-05-07T16:01:24.368Z,21.48
2019-05-07T16:03:54.418Z,21.81
2019-05-07T16:06:29.334Z,22.00
2019-05-07T16:11:57.913Z,22.23
2019-05-07T16:14:26.785Z,22.24
2019-05-07T16:17:24.514Z,22.17
2019-05-07T16:19:54.977Z,22.08
2019-05-07T16:25:43.750Z,22.32
2019-05-07T16:28:12.622Z,22.27
2019-05-07T16:30:48.882Z,22.02
2019-05-07T16:33:15.510Z,21.70
2019-05-07T16:35:42.692Z,21.51
2019-05-07T16:38:18.134Z,21.54
2019-05-07T16:40:52.296Z,21.29
2019-05-07T16:43:30.321Z,21.46
2019-05-07T16:45:56.923Z,21.30
2019-05-07T16:48:23.537Z,21.27
2019-05-07T16:50:52.118Z,21.30
2019-05-07T16:53:30.186Z,21.31
2019-05-07T16:56:03.376Z,21.38
2019-05-07T16:58:43.234Z,21.25
2019-05-07T17:01:10.667Z,20.97
2019-05-07T17:06:25.488Z,20.78
2019-05-07T17:09:13.523Z,20.31
2019-05-07T17:11:46.274Z,20.14
2019-05-07T17:14:13.203Z,19.82
2019-05-07T17:16:48.090Z,19.25
2019-05-07T17:21:53.858Z,18.55
2019-05-07T17:24:22.214Z,18.03
2019-05-07T17:26:58.655Z,17.67
2019-05-07T17:29:25.324Z,17.28
2019-05-07T17:31:52.748Z,16.78
2019-05-07T17:34:30.444Z,16.56
2019-05-07T17:36:57.064Z,16.26
2019-05-07T17:39:23.819Z,15.99
2019-05-07T17:41:51.841Z,15.92
2019-05-07T17:44:25.069Z,15.82
2019-05-07T17:46:51.926Z,15.62
2019-05-07T17:49:32.174Z,15.22
2019-05-07T17:52:04.860Z,14.87
2019-05-07T17:54:31.926Z,14.65
2019-05-07T17:57:06.724Z,14.45
2019-05-07T17:59:33.386Z,14.26
2019-05-07T18:02:19.558Z,14.06
2019-05-07T18:04:51.334Z,13.88
2019-05-07T18:07:22.302Z,13.63
2019-05-07T18:09:49.029Z,13.46
2019-05-07T18:12:15.754Z,13.30
2019-05-07T18:14:42.577Z,13.17
2019-05-07T18:20:12.896Z,12.85
2019-05-07T18:22:46.898Z,12.68
2019-05-07T18:25:25.476Z,12.55
2019-05-07T18:27:52.678Z,12.39
2019-05-07T18:30:32.551Z,12.21
2019-05-07T18:33:25.119Z,12.00
2019-05-07T18:35:52.556Z,11.79
2019-05-07T18:38:26.933Z,11.59
2019-05-07T18:40:53.758Z,11.32
2019-05-07T18:43:22.461Z,11.14
2019-05-07T18:45:55.551Z,10.96
2019-05-07T18:48:22.460Z,10.80
2019-05-07T18:50:57.343Z,10.67
2019-05-07T18:53:24.008Z,10.53
2019-05-07T18:55:51.724Z,10.38
2019-05-07T18:58:25.690Z,10.24
2019-05-07T19:03:32.906Z,9.96
2019-05-07T19:05:59.690Z,9.86
2019-05-07T19:08:26.386Z,9.78
2019-05-07T19:10:53.138Z,9.69
2019-05-07T19:13:21.972Z,9.60
2019-05-07T19:15:56.601Z,9.52
2019-05-07T19:18:33.016Z,9.43
2019-05-07T19:20:59.732Z,9.33
2019-05-07T19:23:26.450Z,9.22
2019-05-07T19:25:53.200Z,9.13
2019-05-07T19:28:22.216Z,9.05
2019-05-07T19:30:54.747Z,8.95
2019-05-07T19:33:26.538Z,8.85
2019-05-07T19:35:59.818Z,8.77
2019-05-07T19:38:26.585Z,8.71
2019-05-07T19:40:53.317Z,8.62
2019-05-07T19:43:20.070Z,8.54
2019-05-07T19:45:46.841Z,8.49
2019-05-07T19:48:13.638Z,8.42
2019-05-07T19:50:41.955Z,8.39
2019-05-07T19:53:20.551Z,8.39
2019-05-07T19:56:13.281Z,8.42
2019-05-07T19:58:41.933Z,8.48
2019-05-07T20:04:13.140Z,8.53
2019-05-07T20:06:49.269Z,8.56
2019-05-07T20:11:54.653Z,8.54
2019-05-07T20:14:22.295Z,8.52
2019-05-07T20:16:56.471Z,8.50
2019-05-07T20:19:23.193Z,8.48
2019-05-07T20:21:52.253Z,8.47
2019-05-07T20:24:28.291Z,8.43
2019-05-07T20:26:54.917Z,8.41
2019-05-07T20:29:22.913Z,8.33
2019-05-07T20:31:56.657Z,8.33
2019-05-07T20:34:23.545Z,8.29
2019-05-07T20:36:51.829Z,8.28
2019-05-07T20:39:25.103Z,8.27
2019-05-07T20:41:52.662Z,8.24
2019-05-07T20:44:26.997Z,8.23
2019-05-07T20:46:53.742Z,8.23
2019-05-07T20:49:22.494Z,8.19
2019-05-07T20:51:55.390Z,8.13
2019-05-07T20:54:42.045Z,8.05
2019-05-07T20:57:28.213Z,7.91
2019-05-07T20:59:54.868Z,7.78
2019-05-07T21:02:22.748Z,7.59
2019-05-07T21:04:56.664Z,7.47
2019-05-07T21:07:23.382Z,7.41
2019-05-07T21:09:50.114Z,7.30
2019-05-07T21:12:16.777Z,7.25
2019-05-07T21:14:43.531Z,7.17
2019-05-07T21:17:11.961Z,7.08
2019-05-07T21:19:45.022Z,7.01
2019-05-07T21:22:13.040Z,6.89
2019-05-07T21:24:49.768Z,6.77
2019-05-07T21:27:16.478Z,6.71
2019-05-07T21:29:43.138Z,6.68
2019-05-07T21:32:09.766Z,6.62
2019-05-07T21:34:36.492Z,6.55
2019-05-07T21:37:03.400Z,6.53
2019-05-07T21:39:38.243Z,6.51
2019-05-07T21:42:04.974Z,6.45
2019-05-07T21:44:32.535Z,6.39
2019-05-07T21:47:06.340Z,6.29
2019-05-07T21:49:33.090Z,6.24
2019-05-07T21:52:01.750Z,6.15
2019-05-07T21:54:53.650Z,6.07
2019-05-07T21:57:39.754Z,6.07
2019-05-07T22:00:26.425Z,6.03
2019-05-07T22:05:47.594Z,6.02
2019-05-07T22:08:14.217Z,5.98
2019-05-07T22:10:40.879Z,5.93
2019-05-07T22:13:07.606Z,5.86
2019-05-07T22:15:34.247Z,5.77
2019-05-07T22:18:02.709Z,5.71
2019-05-07T22:20:35.745Z,5.71
2019-05-07T22:23:02.893Z,5.73
2019-05-07T22:25:42.213Z,5.73
2019-05-07T22:28:15.965Z,5.67
2019-05-07T22:31:02.386Z,5.59
2019-05-07T22:36:28.891Z,5.38
2019-05-07T22:38:55.493Z,5.35
2019-05-07T22:41:22.555Z,5.33
2019-05-07T22:44:02.542Z,5.33
2019-05-07T22:46:35.411Z,5.34
2019-05-07T22:49:03.100Z,5.36
2019-05-07T22:51:40.297Z,5.40
2019-05-07T22:54:06.960Z,5.40
2019-05-07T22:56:53.058Z,5.40
2019-05-07T22:59:22.273Z,5.38
2019-05-07T23:01:54.902Z,5.33
2019-05-07T23:04:29.687Z,5.28
2019-05-07T23:06:56.458Z,5.22
2019-05-07T23:09:23.054Z,5.17
2019-05-07T23:11:49.700Z,5.11
2019-05-07T23:14:16.336Z,5.09
2019-05-07T23:16:43.135Z,5.06
2019-05-07T23:19:09.763Z,4.97
2019-05-07T23:21:36.410Z,4.86
2019-05-07T23:24:03.012Z,4.81
2019-05-07T23:26:29.650Z,4.80
2019-05-07T23:28:56.361Z,4.77
2019-05-07T23:31:23.050Z,4.75
2019-05-07T23:33:56.716Z,4.74
2019-05-07T23:36:23.330Z,4.72
2019-05-07T23:38:51.875Z,4.68
2019-05-07T23:41:47.819Z,4.64
2019-05-07T23:44:23.491Z,4.60
2019-05-07T23:46:51.980Z,4.54
2019-05-07T23:49:28.642Z,4.50
2019-05-07T23:51:55.322Z,4.48
2019-05-07T23:54:23.186Z,4.47
2019-05-07T23:57:05.780Z,4.43
2019-05-07T23:59:32.894Z,4.39
